Time;durP1;ratioP1;P1;durP2;ratioP2;P2;SDS_P1;SDS_P2;PMS_P1;PMS_P2;Temp;Humidity;BMP_temperature;BMP_pressure;BME280_temperature;BME280_humidity;BME280_pressure;Samples;Min_cycle;Max_cycle;Signal;HPM_P1;HPM_P2
2022/10/27 00:02:19;;;;;;;10.82;5.93;;;;;;;11.16;100.00;99707.34;4977767;28;20048;-57
2022/10/27 00:05:04;;;;;;;9.68;6.45;;;;;;;11.17;100.00;99716.91;4994092;28;20034;-57
2022/10/27 00:07:49;;;;;;;6.45;3.65;;;;;;;11.13;100.00;99715.38;5002146;28;20400;-59
2022/10/27 00:10:34;;;;;;;6.10;3.70;;;;;;;11.14;100.00;99726.72;4991886;28;20089;-57
2022/10/27 00:13:18;;;;;;;9.07;4.65;;;;;;;11.12;100.00;99725.97;4995029;28;20141;-57
2022/10/27 00:16:10;;;;;;;5.35;3.47;;;;;;;11.09;100.00;99727.84;4990923;28;20161;-58
2022/10/27 00:18:54;;;;;;;;;;;;;;;11.07;100.00;99734.94;4997562;28;20038;-56
2022/10/27 00:21:39;;;;;;;6.78;4.05;;;;;;;11.06;100.00;99732.41;4990866;28;20004;-58
2022/10/27 00:24:24;;;;;;;5.25;3.03;;;;;;;11.07;100.00;99737.56;4990969;28;20046;-58
2022/10/27 00:27:08;;;;;;;7.35;4.20;;;;;;;11.11;100.00;99735.63;4977577;28;20391;-54
2022/10/27 00:29:53;;;;;;;5.55;3.20;;;;;;;11.10;100.00;99741.78;4979267;28;20061;-57
2022/10/27 00:32:38;;;;;;;5.65;3.47;;;;;;;11.17;100.00;99739.66;4990745;28;20057;-58
2022/10/27 00:35:22;;;;;;;7.45;3.95;;;;;;;11.20;100.00;99740.34;4989853;28;20050;-57
2022/10/27 00:38:07;;;;;;;6.07;4.10;;;;;;;11.16;100.00;99740.63;4996785;28;20065;-56
2022/10/27 00:40:52;;;;;;;8.07;5.07;;;;;;;11.07;100.00;99736.72;4997219;28;20042;-56
2022/10/27 00:43:38;;;;;;;9.00;5.88;;;;;;;11.08;100.00;99741.03;4990833;28;20133;-58
2022/10/27 00:46:36;;;;;;;11.63;6.72;;;;;;;11.16;100.00;99733.56;4995162;28;20103;-56
2022/10/27 00:49:26;;;;;;;8.25;4.57;;;;;;;11.23;100.00;99741.13;4989901;28;20050;-58
2022/10/27 00:52:38;;;;;;;6.47;3.83;;;;;;;11.20;100.00;99744.75;4994495;28;20062;-54
2022/10/27 00:55:34;;;;;;;8.45;5.07;;;;;;;11.17;100.00;99745.78;4992280;28;20097;-56
2022/10/27 00:58:22;;;;;;;6.28;3.40;;;;;;;11.15;100.00;99744.16;4992097;28;20046;-57
2022/10/27 01:01:07;;;;;;;5.60;3.13;;;;;;;11.11;100.00;99755.75;4978688;28;20481;-58
2022/10/27 01:03:51;;;;;;;7.22;4.40;;;;;;;11.11;100.00;99747.88;4975841;28;20490;-56
2022/10/27 01:06:36;;;;;;;5.28;3.28;;;;;;;11.11;100.00;99748.75;4990673;28;20104;-57
2022/10/27 01:09:21;;;;;;;8.35;5.28;;;;;;;11.15;100.00;99745.00;4990170;28;20050;-56
2022/10/27 01:12:06;;;;;;;6.53;3.60;;;;;;;11.19;100.00;99748.31;4980397;28;20476;-59
2022/10/27 01:14:51;;;;;;;5.55;3.40;;;;;;;11.11;100.00;99740.00;4992430;28;20042;-57
2022/10/27 01:17:47;;;;;;;9.32;5.93;;;;;;;11.06;100.00;99745.53;4988315;28;20038;-56
2022/10/27 01:21:05;;;;;;;7.68;4.65;;;;;;;11.08;100.00;99751.53;4975204;28;20062;-57
2022/10/27 01:24:25;;;;;;;15.35;9.18;;;;;;;11.02;100.00;99750.06;4975203;28;20049;-56
2022/10/27 01:27:18;;;;;;;12.15;7.55;;;;;;;11.01;100.00;99744.91;4988027;28;20077;-55
2022/10/27 01:30:06;;;;;;;15.02;7.68;;;;;;;11.05;100.00;99747.28;4989112;28;20038;-57
2022/10/27 01:33:04;;;;;;;10.77;6.63;;;;;;;11.13;100.00;99754.72;4990659;28;20416;-56
2022/10/27 01:36:04;;;;;;;9.10;5.80;;;;;;;11.05;100.00;99752.53;4991221;28;20038;-59
2022/10/27 01:39:05;;;;;;;9.85;6.03;;;;;;;11.03;100.00;99764.88;4993534;28;20038;-58
2022/10/27 01:41:53;;;;;;;12.90;7.43;;;;;;;11.07;100.00;99765.56;4984918;28;20058;-57
2022/10/27 01:44:44;;;;;;;13.07;7.82;;;;;;;11.07;100.00;99758.53;4990875;28;20041;-58
2022/10/27 01:47:30;;;;;;;8.63;5.83;;;;;;;11.08;100.00;99756.78;5001785;28;20137;-57
2022/10/27 01:50:25;;;;;;;11.20;6.75;;;;;;;11.06;100.00;99759.50;4980656;28;20301;-55
2022/10/27 01:53:11;;;;;;;8.23;5.25;;;;;;;11.05;100.00;99760.41;4986933;28;20042;-55
2022/10/27 01:56:04;;;;;;;9.88;5.53;;;;;;;11.03;100.00;99757.00;4999478;28;20716;-58
2022/10/27 01:59:17;;;;;;;11.93;7.20;;;;;;;11.03;100.00;99761.44;4990657;28;20070;-55
2022/10/27 02:02:12;;;;;;;;;;;;;;;11.07;100.00;99760.31;5003891;28;20828;-55
2022/10/27 02:05:17;;;;;;;5.60;3.42;;;;;;;11.01;100.00;99763.28;4990985;28;19922;-56
2022/10/27 02:08:22;;;;;;;5.05;3.60;;;;;;;11.02;100.00;99759.72;4994465;28;20109;-58
2022/10/27 02:11:09;;;;;;;6.47;3.28;;;;;;;11.11;100.00;99764.47;4988433;28;20038;-60
2022/10/27 02:13:57;;;;;;;5.53;3.33;;;;;;;11.06;100.00;99769.13;4995208;28;20045;-57
2022/10/27 02:16:45;;;;;;;13.07;7.15;;;;;;;11.04;100.00;99765.72;4993993;28;20787;-59
2022/10/27 02:19:36;;;;;;;7.53;4.90;;;;;;;10.99;100.00;99770.38;4995401;28;20046;-58
2022/10/27 02:22:24;;;;;;;6.22;3.88;;;;;;;10.97;100.00;99767.84;4998021;28;20042;-57
2022/10/27 02:25:08;;;;;;;6.95;3.70;;;;;;;10.98;100.00;99771.31;4995249;28;20038;-57
2022/10/27 02:28:00;;;;;;;5.50;4.15;;;;;;;10.94;100.00;99771.47;4995483;28;20125;-58
2022/10/27 02:30:45;;;;;;;6.25;3.75;;;;;;;10.91;100.00;99776.91;4988462;28;20537;-57
2022/10/27 02:33:30;;;;;;;8.40;4.43;;;;;;;10.89;100.00;99781.38;4995667;28;20065;-58
2022/10/27 02:36:15;;;;;;;5.78;3.60;;;;;;;10.92;100.00;99782.97;4997458;28;20104;-58
2022/10/27 02:38:59;;;;;;;6.25;4.43;;;;;;;10.91;100.00;99781.28;4998739;28;20046;-57
2022/10/27 02:41:44;;;;;;;5.57;3.55;;;;;;;10.91;100.00;99782.13;4995961;28;20553;-58
2022/10/27 02:44:28;;;;;;;5.65;3.22;;;;;;;10.92;100.00;99785.59;4988145;28;20484;-57
2022/10/27 02:47:13;;;;;;;7.57;4.30;;;;;;;10.96;100.00;99789.75;4994343;28;20038;-54
2022/10/27 02:49:59;;;;;;;7.55;4.20;;;;;;;10.98;100.00;99797.53;4991619;28;20835;-56
2022/10/27 02:52:44;;;;;;;7.25;3.78;;;;;;;11.01;100.00;99789.50;4985994;28;20493;-56
2022/10/27 02:55:29;;;;;;;6.85;3.28;;;;;;;11.03;100.00;99798.13;4996954;28;20453;-59
2022/10/27 02:58:13;;;;;;;5.47;3.05;;;;;;;10.99;100.00;99794.81;4993185;28;20038;-56
2022/10/27 03:00:58;;;;;;;6.78;4.00;;;;;;;10.98;100.00;99801.00;4992536;28;20110;-56
2022/10/27 03:03:42;;;;;;;5.40;3.35;;;;;;;10.92;100.00;99803.94;4980117;28;20046;-56
2022/10/27 03:06:28;;;;;;;4.50;2.72;;;;;;;10.90;100.00;99798.78;4992280;28;20038;-56
2022/10/27 03:09:12;;;;;;;14.00;8.70;;;;;;;10.88;100.00;99807.66;4979668;28;20049;-55
2022/10/27 03:11:57;;;;;;;6.32;3.78;;;;;;;10.77;100.00;99805.63;4996720;28;20048;-57
2022/10/27 03:14:42;;;;;;;7.80;4.38;;;;;;;10.70;100.00;99805.09;4995129;28;20121;-57
2022/10/27 03:17:26;;;;;;;16.40;10.65;;;;;;;10.61;100.00;99809.03;4997058;28;20099;-55
2022/10/27 03:20:13;;;;;;;35.15;22.60;;;;;;;10.56;100.00;99808.44;4963897;28;20184;-55
2022/10/27 03:22:57;;;;;;;27.38;16.95;;;;;;;10.58;100.00;99810.03;4980421;28;20046;-56
2022/10/27 03:25:45;;;;;;;13.38;8.05;;;;;;;10.56;100.00;99809.28;4987550;28;20555;-55
2022/10/27 03:28:34;;;;;;;14.60;9.43;;;;;;;10.57;100.00;99812.75;4996562;28;20448;-56
2022/10/27 03:31:18;;;;;;;16.35;10.32;;;;;;;10.54;100.00;99811.13;4982141;28;20054;-57
2022/10/27 03:34:03;;;;;;;15.93;10.88;;;;;;;10.57;100.00;99813.59;4994787;28;20042;-57
2022/10/27 03:36:47;;;;;;;13.82;8.88;;;;;;;10.60;100.00;99809.97;4993754;28;20053;-56
2022/10/27 03:39:32;;;;;;;11.50;8.38;;;;;;;10.67;100.00;99806.09;4988587;28;20056;-57
2022/10/27 03:42:17;;;;;;;13.98;8.20;;;;;;;10.63;100.00;99819.44;4993405;28;20121;-57
2022/10/27 03:45:02;;;;;;;15.25;9.35;;;;;;;10.56;100.00;99814.50;4998735;28;20645;-56
2022/10/27 03:47:46;;;;;;;14.30;9.15;;;;;;;10.53;100.00;99812.06;4994773;28;20057;-57
2022/10/27 03:50:31;;;;;;;14.32;8.07;;;;;;;10.49;100.00;99812.28;4977275;28;20086;-57
2022/10/27 03:53:17;;;;;;;12.65;7.57;;;;;;;10.42;100.00;99812.59;4996743;28;20847;-57
2022/10/27 03:56:02;;;;;;;12.60;7.68;;;;;;;10.38;100.00;99810.19;4994569;28;20082;-57
2022/10/27 03:58:46;;;;;;;10.60;7.30;;;;;;;10.34;100.00;99812.97;4964055;28;20270;-57
2022/10/27 04:01:33;;;;;;;11.70;7.88;;;;;;;10.36;100.00;99812.91;4989638;28;20545;-56
2022/10/27 04:04:18;;;;;;;14.60;8.18;;;;;;;10.36;100.00;99812.91;4992585;28;20465;-57
2022/10/27 04:07:02;;;;;;;13.57;8.40;;;;;;;10.33;100.00;99813.88;4996477;28;20053;-58
2022/10/27 04:09:47;;;;;;;10.38;6.50;;;;;;;10.32;100.00;99816.59;4996612;28;20124;-57
2022/10/27 04:12:32;;;;;;;11.60;7.13;;;;;;;10.30;100.00;99813.19;4992871;28;20034;-59
2022/10/27 04:15:17;;;;;;;9.07;5.85;;;;;;;10.53;100.00;99819.06;4993038;28;20050;-60
2022/10/27 04:18:02;;;;;;;8.75;5.68;;;;;;;10.67;100.00;99813.13;4982395;28;20042;-57
2022/10/27 04:20:47;;;;;;;8.50;5.28;;;;;;;10.70;100.00;99818.19;4995530;28;20046;-53
2022/10/27 04:23:31;;;;;;;11.45;6.50;;;;;;;10.62;100.00;99815.97;4994030;28;20184;-58
2022/10/27 04:26:16;;;;;;;11.05;5.93;;;;;;;10.50;100.00;99813.97;4998572;28;20057;-58
2022/10/27 04:29:00;;;;;;;8.43;5.28;;;;;;;10.43;100.00;99809.03;4994566;28;20129;-58
2022/10/27 04:31:45;;;;;;;8.18;5.15;;;;;;;10.38;100.00;99810.19;4987294;28;20068;-53
2022/10/27 04:34:30;;;;;;;8.65;4.97;;;;;;;10.32;100.00;99813.97;4995035;28;20070;-56
2022/10/27 04:37:15;;;;;;;10.18;6.28;;;;;;;10.24;100.00;99819.59;4986821;28;20827;-56
2022/10/27 04:40:00;;;;;;;9.85;4.90;;;;;;;10.11;100.00;99827.22;5001239;28;20038;-58
2022/10/27 04:42:45;;;;;;;16.55;6.60;;;;;;;9.99;100.00;99833.91;4991407;28;20625;-58
2022/10/27 04:45:30;;;;;;;8.82;5.70;;;;;;;10.05;100.00;99827.53;4991922;28;20131;-56
2022/10/27 04:48:15;;;;;;;17.58;10.27;;;;;;;9.86;100.00;99844.97;4993947;28;20560;-58
2022/10/27 04:51:00;;;;;;;7.82;4.88;;;;;;;9.71;100.00;99843.13;4979162;28;20694;-58
2022/10/27 04:53:45;;;;;;;8.00;4.22;;;;;;;9.58;100.00;99843.69;4992811;28;20548;-56
2022/10/27 04:56:29;;;;;;;6.72;4.53;;;;;;;9.42;100.00;99846.16;4992600;28;20064;-54
2022/10/27 04:59:14;;;;;;;6.63;4.18;;;;;;;9.38;100.00;99844.63;4992799;28;20117;-58
2022/10/27 05:01:59;;;;;;;6.10;4.15;;;;;;;9.30;100.00;99846.75;4991739;28;20043;-55
2022/10/27 05:04:44;;;;;;;4.90;3.88;;;;;;;9.30;100.00;99847.56;4969968;28;20422;-57
2022/10/27 05:07:29;;;;;;;7.95;3.92;;;;;;;9.17;100.00;99851.69;4990679;28;20128;-56
2022/10/27 05:10:13;;;;;;;6.10;3.60;;;;;;;9.05;100.00;99853.94;4978898;28;20043;-59
2022/10/27 05:12:58;;;;;;;3.90;2.85;;;;;;;9.12;100.00;99857.13;4992757;28;20053;-59
2022/10/27 05:15:43;;;;;;;5.97;3.75;;;;;;;9.26;100.00;99860.88;4992304;28;20099;-58
2022/10/27 05:18:28;;;;;;;6.88;4.07;;;;;;;9.38;100.00;99854.22;4992113;28;20046;-57
2022/10/27 05:21:12;;;;;;;7.25;5.45;;;;;;;9.39;100.00;99858.53;4992415;28;20061;-59
2022/10/27 05:23:57;;;;;;;6.43;3.65;;;;;;;9.33;100.00;99862.28;4991375;28;20062;-59
2022/10/27 05:26:42;;;;;;;7.32;5.00;;;;;;;9.44;100.00;99862.66;4995870;28;20435;-56
2022/10/27 05:29:27;;;;;;;11.00;6.18;;;;;;;9.22;100.00;99863.63;4998104;28;20046;-57
2022/10/27 05:32:11;;;;;;;15.73;7.88;;;;;;;9.01;100.00;99869.84;4990407;28;20529;-59
2022/10/27 05:34:55;;;;;;;7.03;3.83;;;;;;;9.00;100.00;99874.19;4992764;28;20210;-61
2022/10/27 05:37:44;;;;;;;4.97;3.70;;;;;;;8.93;100.00;99878.00;4992782;28;20092;-60
2022/10/27 05:40:35;;;;;;;5.93;4.47;;;;;;;8.97;100.00;99872.59;4990415;28;20129;-60
2022/10/27 05:43:20;;;;;;;5.32;3.42;;;;;;;9.19;100.00;99889.91;4989879;28;20499;-61
2022/10/27 05:46:05;;;;;;;6.47;3.05;;;;;;;9.37;100.00;99892.59;4996183;28;20047;-60
2022/10/27 05:48:50;;;;;;;4.80;2.90;;;;;;;9.45;100.00;99889.66;4986767;28;20046;-60
2022/10/27 05:51:34;;;;;;;5.82;3.58;;;;;;;9.68;100.00;99899.03;4990775;28;20070;-58
2022/10/27 05:54:18;;;;;;;7.28;4.75;;;;;;;9.78;100.00;99893.38;5002933;28;20045;-59
2022/10/27 05:57:03;;;;;;;4.93;4.25;;;;;;;9.98;100.00;99902.91;4976287;28;20042;-54
2022/10/27 05:59:48;;;;;;;6.13;3.85;;;;;;;10.39;100.00;99901.81;4997546;28;20033;-56
2022/10/27 06:02:33;;;;;;;4.75;3.33;;;;;;;10.70;100.00;99902.06;4997328;28;20041;-57
2022/10/27 06:05:18;;;;;;;8.00;4.03;;;;;;;11.29;100.00;99898.16;4996668;28;20049;-59
2022/10/27 06:08:03;;;;;;;9.38;5.93;;;;;;;11.88;100.00;99902.00;4993444;28;20038;-59
2022/10/27 06:10:47;;;;;;;12.27;7.68;;;;;;;12.06;100.00;99919.34;4996797;28;20409;-59
2022/10/27 06:13:32;;;;;;;15.90;9.93;;;;;;;12.31;100.00;99917.13;4993908;28;20037;-61
2022/10/27 06:16:21;;;;;;;9.75;6.72;;;;;;;12.25;100.00;99914.84;4995207;28;20056;-55
2022/10/27 06:19:05;;;;;;;8.43;5.97;;;;;;;12.30;100.00;99918.91;4994553;28;20118;-58
2022/10/27 06:21:50;;;;;;;8.45;5.97;;;;;;;12.29;100.00;99926.91;4991862;28;20492;-59
2022/10/27 06:24:34;;;;;;;9.02;5.57;;;;;;;12.75;100.00;99918.09;4995514;28;20475;-58
2022/10/27 06:27:19;;;;;;;9.18;4.93;;;;;;;13.10;100.00;99927.44;4980810;28;20054;-57
2022/10/27 06:30:04;;;;;;;8.80;5.65;;;;;;;12.97;99.65;99935.22;4993220;28;20094;-59
2022/10/27 06:32:49;;;;;;;7.72;4.50;;;;;;;12.88;100.00;99935.75;4992090;28;20046;-60
2022/10/27 06:35:34;;;;;;;7.20;3.55;;;;;;;13.03;97.13;99931.38;4988478;28;20125;-60
2022/10/27 06:38:18;;;;;;;6.63;4.35;;;;;;;13.33;94.12;99937.47;4990430;28;20117;-59
2022/10/27 06:41:06;;;;;;;6.72;3.75;;;;;;;13.17;95.97;99947.16;4992336;28;20053;-59
2022/10/27 06:43:50;;;;;;;9.82;5.50;;;;;;;13.04;100.00;99948.84;4993185;28;20050;-59
2022/10/27 06:46:38;;;;;;;11.18;5.70;;;;;;;13.11;99.55;99946.69;4991043;28;20046;-60
2022/10/27 06:49:22;;;;;;;8.68;5.72;;;;;;;13.80;96.67;99946.03;4975088;28;20049;-59
2022/10/27 06:52:07;;;;;;;11.93;6.50;;;;;;;13.05;97.13;99953.16;4955782;28;20149;-59
2022/10/27 06:54:52;;;;;;;9.90;6.03;;;;;;;13.76;95.64;99965.56;4989857;28;20339;-58
2022/10/27 06:57:41;;;;;;;10.02;5.15;;;;;;;14.38;88.86;99961.63;4985344;28;20050;-59
2022/10/27 07:00:26;;;;;;;12.50;6.78;;;;;;;13.77;90.85;99964.66;4980049;28;20042;-60
2022/10/27 07:03:12;;;;;;;10.40;6.78;;;;;;;13.79;93.73;99965.41;4988016;28;20236;-58
2022/10/27 07:05:57;;;;;;;8.45;5.18;;;;;;;14.69;87.05;99965.84;4992077;28;20049;-58
2022/10/27 07:08:41;;;;;;;7.38;4.97;;;;;;;14.66;87.30;99974.78;4989463;28;20133;-59
2022/10/27 07:11:27;;;;;;;11.55;6.03;;;;;;;14.73;89.03;99981.34;4990179;28;20053;-58
2022/10/27 07:14:12;;;;;;;7.60;4.55;;;;;;;15.13;85.72;99972.53;4976167;28;20389;-60
2022/10/27 07:16:59;;;;;;;7.55;4.70;;;;;;;15.27;83.64;99973.41;4991695;28;20047;-61
2022/10/27 07:19:44;;;;;;;6.13;4.43;;;;;;;15.83;81.39;99974.78;4987984;28;20042;-56
2022/10/27 07:22:29;;;;;;;6.70;4.43;;;;;;;15.58;82.87;99981.81;4988229;28;20042;-53
2022/10/27 07:25:14;;;;;;;8.15;4.85;;;;;;;15.38;82.12;99983.22;4990932;28;20148;-54
2022/10/27 07:28:00;;;;;;;7.07;4.32;;;;;;;15.78;81.67;99979.56;4993992;28;20056;-53
2022/10/27 07:30:47;;;;;;;5.93;4.30;;;;;;;15.95;80.37;99990.72;4974675;28;20121;-54
2022/10/27 07:33:31;;;;;;;6.10;4.40;;;;;;;15.83;80.75;99985.34;4993164;28;20054;-56
2022/10/27 07:36:16;;;;;;;6.63;4.35;;;;;;;15.99;80.71;99993.03;4989650;28;20060;-54
2022/10/27 07:39:00;;;;;;;9.75;4.75;;;;;;;16.19;80.37;99995.22;4988821;28;20066;-53
2022/10/27 07:41:45;;;;;;;6.95;4.32;;;;;;;16.28;78.00;100001.63;4993150;28;20058;-52
2022/10/27 07:44:30;;;;;;;8.40;4.40;;;;;;;16.53;78.43;99994.53;4979662;28;20054;-52
2022/10/27 07:47:15;;;;;;;9.70;5.43;;;;;;;15.85;80.83;99999.28;4997320;28;20058;-54
2022/10/27 07:49:59;;;;;;;8.50;5.38;;;;;;;15.30;81.12;100002.22;4992461;28;20043;-61
2022/10/27 07:52:45;;;;;;;9.70;5.20;;;;;;;15.10;83.62;100009.72;4975407;28;20094;-55
2022/10/27 07:55:32;;;;;;;11.35;5.97;;;;;;;15.40;81.73;100010.34;4976765;28;20072;-50
2022/10/27 07:58:16;;;;;;;13.77;7.80;;;;;;;15.29;81.32;100016.38;4970104;28;20046;-52
2022/10/27 08:01:03;;;;;;;11.85;7.15;;;;;;;14.87;85.28;100013.88;4975836;28;20097;-53
2022/10/27 08:03:48;;;;;;;14.38;7.93;;;;;;;14.31;89.52;100020.13;4971891;28;20057;-55
2022/10/27 08:06:33;;;;;;;18.27;9.00;;;;;;;14.28;87.88;100015.91;4969698;28;20046;-55
2022/10/27 08:09:17;;;;;;;18.60;9.07;;;;;;;14.24;89.70;100014.41;4958346;28;20053;-59
2022/10/27 08:12:02;;;;;;;17.08;10.23;;;;;;;14.62;88.56;100021.59;4976771;28;20057;-54
2022/10/27 08:14:47;;;;;;;18.13;10.23;;;;;;;14.49;90.32;100015.47;4972995;28;20054;-57
2022/10/27 08:17:32;;;;;;;23.17;11.43;;;;;;;14.74;88.14;100019.97;4974955;28;20409;-56
2022/10/27 08:20:16;;;;;;;23.67;11.60;;;;;;;14.96;87.96;100023.00;4974793;28;20051;-57
2022/10/27 08:23:03;;;;;;;21.00;10.63;;;;;;;14.89;89.35;100018.13;4972590;28;20039;-60
2022/10/27 08:25:48;;;;;;;28.25;14.02;;;;;;;15.31;86.06;100025.03;4974387;28;20042;-58
2022/10/27 08:28:33;;;;;;;27.52;12.48;;;;;;;15.15;86.70;100023.44;4972218;28;20045;-55
2022/10/27 08:31:18;;;;;;;25.42;12.52;;;;;;;15.19;86.50;100031.16;4970999;28;20146;-56
2022/10/27 08:34:03;;;;;;;27.25;12.50;;;;;;;14.75;90.65;100034.00;4956145;28;20047;-60
2022/10/27 08:36:48;;;;;;;35.67;14.60;;;;;;;14.62;90.86;100033.97;4978142;28;20513;-52
2022/10/27 08:39:32;;;;;;;24.88;12.70;;;;;;;15.48;88.23;100037.06;4972874;28;20042;-56
2022/10/27 08:42:39;;;;;;;24.73;13.38;;;;;;;16.29;84.49;100024.47;4973127;28;20122;-56
2022/10/27 08:45:31;;;;;;;25.05;12.52;;;;;;;16.99;80.52;100028.13;4971447;28;20058;-55
2022/10/27 08:48:24;;;;;;;27.58;14.25;;;;;;;17.34;79.04;100033.50;4975371;28;20081;-52
2022/10/27 08:51:19;;;;;;;22.13;12.45;;;;;;;17.50;79.16;100025.22;4989541;28;20038;-49
2022/10/27 08:54:04;;;;;;;26.75;12.95;;;;;;;17.97;76.98;100025.06;4990618;28;20070;-50
2022/10/27 08:56:49;;;;;;;29.35;13.95;;;;;;;17.89;77.34;100024.84;4997212;28;20053;-50
2022/10/27 08:59:35;;;;;;;31.05;13.85;;;;;;;18.16;76.95;100028.09;4993957;28;20042;-52
2022/10/27 09:02:33;;;;;;;32.08;14.30;;;;;;;18.07;77.17;100030.47;4990763;28;20081;-52
2022/10/27 09:05:44;;;;;;;35.65;14.25;;;;;;;19.06;74.01;100022.56;4990505;28;20153;-51
2022/10/27 09:09:06;;;;;;;28.80;14.20;;;;;;;18.05;77.00;100027.09;4974874;28;20145;-47
2022/10/27 09:11:57;;;;;;;26.95;13.20;;;;;;;18.29;75.34;100026.16;4994678;28;20204;-54
2022/10/27 09:14:52;;;;;;;26.15;13.80;;;;;;;17.67;76.21;100026.56;4992540;28;20046;-53
2022/10/27 09:17:43;;;;;;;31.13;15.43;;;;;;;17.82;75.29;100023.66;4987095;28;20413;-50
2022/10/27 09:20:35;;;;;;;35.78;16.95;;;;;;;17.05;80.75;100028.63;4979393;28;20472;-55
2022/10/27 09:23:28;;;;;;;28.20;14.75;;;;;;;17.42;77.94;100032.91;4978091;28;20066;-53
2022/10/27 09:26:15;;;;;;;28.92;14.95;;;;;;;17.92;75.88;100027.25;4980628;28;20133;-52
2022/10/27 09:29:07;;;;;;;26.33;12.73;;;;;;;17.92;78.87;100021.94;4951525;28;20604;-56
2022/10/27 09:31:56;;;;;;;31.65;14.18;;;;;;;17.32;79.69;100038.94;4953398;28;20094;-50
2022/10/27 09:34:45;;;;;;;32.28;16.05;;;;;;;16.87;81.25;100031.69;4957775;28;20051;-48
2022/10/27 09:37:39;;;;;;;32.35;15.55;;;;;;;17.05;81.05;100041.84;4954479;28;20081;-54
2022/10/27 09:40:25;;;;;;;34.60;16.45;;;;;;;17.07;81.82;100042.59;4952991;28;20137;-48
2022/10/27 09:43:10;;;;;;;35.83;17.45;;;;;;;17.03;85.66;100049.91;4952101;28;20510;-49
2022/10/27 09:46:16;;;;;;;39.30;17.65;;;;;;;17.31;91.85;100050.50;4949642;28;20677;-54
2022/10/27 09:49:04;;;;;;;35.83;17.98;;;;;;;18.13;82.24;100042.47;4950198;28;20784;-51
2022/10/27 09:51:53;;;;;;;35.83;17.58;;;;;;;17.04;82.95;100042.81;4954511;28;20079;-50
2022/10/27 09:54:41;;;;;;;35.85;16.77;;;;;;;17.46;86.82;100039.69;4942211;28;20055;-53
2022/10/27 09:57:30;;;;;;;43.33;18.45;;;;;;;16.74;83.86;100039.72;4961554;28;20545;-54
2022/10/27 10:00:15;;;;;;;39.65;18.17;;;;;;;17.03;84.24;100038.47;4956512;28;20507;-50
2022/10/27 10:03:04;;;;;;;41.78;19.70;;;;;;;17.10;82.19;100039.75;4951063;28;20050;-49
2022/10/27 10:06:28;;;;;;;36.83;17.95;;;;;;;17.26;84.07;100038.56;4963775;28;20309;-53
2022/10/27 10:09:34;;;;;;;38.47;17.88;;;;;;;17.82;78.20;100040.38;4929880;28;20107;-52
2022/10/27 10:12:25;;;;;;;36.10;17.45;;;;;;;18.36;75.68;100033.59;4943214;28;20059;-55
2022/10/27 10:15:10;;;;;;;33.97;16.23;;;;;;;18.46;75.55;100031.84;4944500;28;20086;-50
2022/10/27 10:18:01;;;;;;;31.05;14.98;;;;;;;19.38;72.82;100034.06;4942138;28;20054;-51
2022/10/27 10:20:54;;;;;;;33.58;16.67;;;;;;;20.43;67.72;100018.72;4943761;28;20039;-53
2022/10/27 10:23:53;;;;;;;28.27;13.77;;;;;;;21.30;66.60;100025.09;4943391;28;20047;-45
2022/10/27 10:26:45;;;;;;;29.52;14.95;;;;;;;22.40;62.41;100019.09;4936356;28;20247;-49
2022/10/27 10:29:47;;;;;;;27.90;15.52;;;;;;;21.54;61.79;100029.94;4934405;28;20046;-51
2022/10/27 10:32:35;;;;;;;30.10;14.20;;;;;;;22.00;60.64;100029.19;4929035;29;20493;-50
2022/10/27 10:35:50;;;;;;;27.02;14.23;;;;;;;21.52;62.92;100029.25;4943206;28;20570;-50
2022/10/27 10:38:38;;;;;;;25.88;12.55;;;;;;;22.52;59.52;100024.22;4940767;28;20071;-49
2022/10/27 10:41:24;;;;;;;27.08;13.02;;;;;;;21.52;62.77;100028.41;4930950;28;20047;-48
2022/10/27 10:44:14;;;;;;;32.33;15.07;;;;;;;22.07;59.95;100031.25;4945781;28;20879;-49
2022/10/27 10:46:58;;;;;;;28.77;14.23;;;;;;;22.12;59.33;100024.50;4990866;28;20046;-52
2022/10/27 10:49:49;;;;;;;26.73;13.95;;;;;;;22.75;59.23;100023.78;4995283;28;20038;-52
2022/10/27 10:52:37;;;;;;;28.88;14.40;;;;;;;22.94;56.05;100024.56;4992135;28;20060;-47
2022/10/27 10:55:27;;;;;;;27.60;13.77;;;;;;;22.59;58.09;100021.75;4989538;28;20042;-53
2022/10/27 10:58:16;;;;;;;25.75;13.20;;;;;;;22.75;57.32;100018.44;4992837;28;20049;-49
2022/10/27 11:01:06;;;;;;;26.05;13.30;;;;;;;22.29;58.62;100016.66;4993279;28;20069;-48
2022/10/27 11:03:54;;;;;;;22.50;12.80;;;;;;;22.56;57.32;100025.56;4993803;28;20058;-48
2022/10/27 11:06:56;;;;;;;23.17;12.52;;;;;;;22.39;57.56;100013.91;4990816;28;20049;-53
2022/10/27 11:09:59;;;;;;;;;;;;;;;22.42;57.55;100018.94;5001207;28;20042;-52
2022/10/27 11:13:06;;;;;;;16.10;9.10;;;;;;;22.65;57.73;100021.19;4979304;28;19965;-53
2022/10/27 11:15:56;;;;;;;17.20;9.73;;;;;;;22.32;58.59;100020.84;4991766;28;20069;-51
2022/10/27 11:18:46;;;;;;;14.90;9.30;;;;;;;22.81;56.62;100024.97;4995694;28;20042;-50
2022/10/27 11:21:51;;;;;;;19.77;10.40;;;;;;;22.47;56.57;100030.03;4992599;28;20055;-50
2022/10/27 11:24:47;;;;;;;16.65;9.60;;;;;;;22.19;58.62;100026.56;4998682;28;20066;-51
2022/10/27 11:27:56;;;;;;;20.27;10.43;;;;;;;22.40;57.95;100021.78;4993524;28;20126;-48
2022/10/27 11:30:59;;;;;;;14.95;9.77;;;;;;;23.20;55.11;100024.59;4973089;28;20474;-51
2022/10/27 11:34:04;;;;;;;14.85;8.15;;;;;;;23.69;54.10;100025.88;4976379;28;20054;-53
2022/10/27 11:36:58;;;;;;;14.75;8.88;;;;;;;22.70;56.52;100023.41;4992395;28;20038;-49
2022/10/27 11:40:00;;;;;;;14.40;8.70;;;;;;;22.27;58.28;100016.81;4980280;28;20046;-49
2022/10/27 11:42:53;;;;;;;13.93;9.15;;;;;;;22.67;56.64;100024.53;4993185;28;20190;-50
2022/10/27 11:45:59;;;;;;;14.88;8.40;;;;;;;22.41;58.93;100014.59;4992601;28;20046;-47
2022/10/27 11:49:24;;;;;;;14.02;8.00;;;;;;;22.60;56.92;100012.78;4989854;28;20205;-52
2022/10/27 11:52:18;;;;;;;16.02;9.15;;;;;;;21.73;60.00;100027.34;4991352;28;20058;-51
2022/10/27 11:55:07;;;;;;;15.55;10.00;;;;;;;22.05;58.36;100020.72;4991868;28;20054;-50
2022/10/27 11:58:10;;;;;;;17.65;10.45;;;;;;;22.07;58.93;100012.56;4976466;28;20428;-52
2022/10/27 12:01:10;;;;;;;18.75;11.00;;;;;;;22.00;59.32;100007.84;4976060;28;20052;-47
2022/10/27 12:04:23;;;;;;;18.83;11.52;;;;;;;22.63;57.14;99999.13;4991064;28;20062;-51
2022/10/27 12:07:17;;;;;;;22.50;12.73;;;;;;;22.97;56.08;100005.56;4991841;28;20034;-48
2022/10/27 12:10:25;;;;;;;25.88;14.27;;;;;;;23.09;56.21;99998.13;4986547;28;20447;-49
2022/10/27 12:13:21;;;;;;;29.67;15.90;;;;;;;23.40;55.21;99997.66;4994169;28;20081;-52
2022/10/27 12:16:40;;;;;;;31.58;16.08;;;;;;;23.29;55.72;99993.38;4978429;28;20188;-46
2022/10/27 12:19:28;;;;;;;32.72;17.58;;;;;;;22.87;56.34;99992.28;4994100;28;20528;-46
2022/10/27 12:22:21;;;;;;;33.45;17.40;;;;;;;22.91;56.66;99993.69;4990673;28;20104;-48
2022/10/27 12:25:39;;;;;;;32.65;17.20;;;;;;;23.37;55.29;100001.44;4993266;28;20038;-48
2022/10/27 12:28:25;;;;;;;38.90;20.58;;;;;;;22.32;58.39;99997.66;4915493;29;20064;-50
2022/10/27 12:31:16;;;;;;;40.22;20.42;;;;;;;22.41;58.19;99990.56;4915683;29;20126;-46
2022/10/27 12:34:03;;;;;;;38.40;19.35;;;;;;;22.29;58.63;100003.31;4907599;29;20070;-50
2022/10/27 12:37:06;;;;;;;38.25;19.15;;;;;;;22.30;58.88;99998.78;4895245;29;20048;-50
2022/10/27 12:39:50;;;;;;;41.33;18.73;;;;;;;22.34;58.65;99992.19;4906867;29;20075;-49
2022/10/27 12:43:04;;;;;;;41.30;19.20;;;;;;;22.11;58.91;99998.81;4921119;29;20130;-51
2022/10/27 12:46:21;;;;;;;44.38;20.33;;;;;;;22.90;57.79;99994.66;4899412;29;20091;-51
2022/10/27 12:49:37;;;;;;;40.53;19.83;;;;;;;22.17;58.95;99989.34;4856734;29;20053;-51
2022/10/27 12:52:25;;;;;;;37.70;18.48;;;;;;;21.97;59.88;99986.81;4868967;29;20065;-50
2022/10/27 12:55:09;;;;;;;38.25;19.25;;;;;;;22.19;58.38;99987.38;4869682;29;20045;-47
2022/10/27 12:58:01;;;;;;;32.63;17.80;;;;;;;22.58;56.27;99988.03;4866668;29;20087;-48
2022/10/27 13:00:46;;;;;;;33.10;17.65;;;;;;;21.65;59.14;99991.59;4869222;29;20111;-49
2022/10/27 13:03:49;;;;;;;29.35;16.48;;;;;;;20.54;63.27;99987.66;4869064;29;20037;-50
2022/10/27 13:06:45;;;;;;;28.60;15.82;;;;;;;20.82;62.06;99990.44;4925333;29;20050;-53